Time;durP1;ratioP1;P1;durP2;ratioP2;P2;SDS_P1;SDS_P2;PMS_P1;PMS_P2;Temp;Humidity;BMP_temperature;BMP_pressure;BME280_temperature;BME280_humidity;BME280_pressure;Samples;Min_cycle;Max_cycle;Signal;HPM_P1;HPM_P2
2023/01/15 00:01:23;;;;;;;14.93;9.48;;;;;;;4.59;89.45;96937.34;5050442;28;20475;-68
2023/01/15 00:03:53;;;;;;;16.88;10.73;;;;;;;4.61;89.04;96939.06;5050573;28;20068;-66
2023/01/15 00:06:21;;;;;;;14.48;8.77;;;;;;;4.60;89.11;96936.50;5050710;28;20080;-64
2023/01/15 00:08:49;;;;;;;13.85;9.32;;;;;;;4.58;89.15;96941.69;5050423;28;20826;-67
2023/01/15 00:11:17;;;;;;;19.83;10.27;;;;;;;4.60;88.98;96942.53;5050351;28;20049;-66
2023/01/15 00:13:45;;;;;;;13.52;9.60;;;;;;;4.61;88.87;96943.41;5050317;28;20052;-62
2023/01/15 00:16:15;;;;;;;14.63;9.73;;;;;;;4.58;89.11;96946.88;5050255;28;20141;-66
2023/01/15 00:18:43;;;;;;;14.43;9.30;;;;;;;4.58;89.08;96946.88;5050261;28;20049;-66
2023/01/15 00:21:13;;;;;;;15.48;9.88;;;;;;;4.59;89.15;96950.31;5050243;28;20049;-64
2023/01/15 00:29:13;;;;;;;12.40;7.65;;;;;;;4.55;88.62;96950.34;5050259;28;20056;-65
2023/01/15 00:31:41;;;;;;;12.50;8.05;;;;;;;4.55;88.43;96957.28;5050070;28;20053;-66
2023/01/15 00:34:09;;;;;;;10.80;7.20;;;;;;;4.54;88.48;96956.41;5050013;28;20105;-61
2023/01/15 00:36:39;;;;;;;10.80;7.45;;;;;;;4.53;88.38;96956.41;5049976;28;20094;-66
2023/01/15 00:39:06;;;;;;;8.73;7.10;;;;;;;4.52;88.30;96952.94;5049880;28;20140;-65
2023/01/15 00:41:34;;;;;;;9.80;7.18;;;;;;;4.54;88.37;96953.81;5049715;28;20044;-66
2023/01/15 00:44:01;;;;;;;8.57;6.10;;;;;;;4.54;88.21;96946.03;5049789;28;20085;-62
2023/01/15 00:46:28;;;;;;;7.53;5.72;;;;;;;4.54;88.15;96948.63;5050151;28;20049;-63
2023/01/15 00:48:56;;;;;;;7.78;6.05;;;;;;;4.52;87.90;96945.16;5050049;28;20048;-66
2023/01/15 00:51:24;;;;;;;5.88;4.70;;;;;;;4.54;87.76;96938.25;5049946;28;20049;-66
2023/01/15 00:53:53;;;;;;;6.72;4.70;;;;;;;4.55;87.56;96939.13;5049912;28;20098;-65
2023/01/15 00:56:20;;;;;;;6.82;4.95;;;;;;;4.54;87.43;96937.38;5049941;28;20439;-60
2023/01/15 00:58:48;;;;;;;7.72;5.55;;;;;;;4.52;87.50;96932.22;5049777;28;20053;-63
2023/01/15 01:01:15;;;;;;;9.02;5.78;;;;;;;4.51;87.60;96929.63;5049711;28;20055;-63
2023/01/15 01:03:47;;;;;;;10.00;6.75;;;;;;;4.48;87.93;96933.13;5049770;28;20056;-65
2023/01/15 01:06:15;;;;;;;10.10;6.95;;;;;;;4.47;88.01;96934.00;5049973;28;20101;-62
2023/01/15 01:08:44;;;;;;;13.13;8.00;;;;;;;4.43;88.31;96929.72;5049822;28;20088;-63
2023/01/15 01:11:15;;;;;;;155.00;12.55;;;;;;;4.42;88.42;96927.97;5049586;28;20056;-63
2023/01/15 01:13:43;;;;;;;321.65;18.77;;;;;;;4.44;88.41;96934.03;5049981;28;20440;-65
2023/01/15 01:16:26;;;;;;;83.38;8.77;;;;;;;4.42;88.31;96922.78;5049477;28;20132;-67
2023/01/15 01:18:54;;;;;;;29.02;7.78;;;;;;;4.40;88.18;96921.97;5049508;28;20049;-65
2023/01/15 01:21:21;;;;;;;8.77;6.93;;;;;;;4.40;88.41;96924.56;5049498;28;20088;-64
2023/01/15 01:23:49;;;;;;;41.85;8.70;;;;;;;4.41;88.50;96923.66;5049751;28;20087;-63
2023/01/15 01:26:17;;;;;;;11.50;7.60;;;;;;;4.43;88.44;96924.53;5049607;28;20490;-63
2023/01/15 01:28:49;;;;;;;43.60;8.07;;;;;;;4.42;88.42;96922.78;5049409;28;20090;-63
2023/01/15 01:31:16;;;;;;;8.88;5.95;;;;;;;4.43;88.33;96924.53;5049554;28;20136;-65
2023/01/15 01:33:44;;;;;;;10.07;6.68;;;;;;;4.41;88.17;96928.84;5049386;28;20399;-65
2023/01/15 01:36:12;;;;;;;7.40;6.35;;;;;;;4.42;88.19;96930.56;5049456;28;20053;-63
2023/01/15 01:38:39;;;;;;;7.10;5.35;;;;;;;4.41;87.78;96928.84;5049370;28;20045;-62
2023/01/15 01:41:06;;;;;;;7.85;4.95;;;;;;;4.37;87.88;96925.41;5049204;28;20098;-64
2023/01/15 01:43:57;;;;;;;7.88;5.53;;;;;;;4.32;88.11;96919.41;5049188;28;20170;-65
2023/01/15 01:46:27;;;;;;;6.60;5.30;;;;;;;4.32;87.99;96921.13;5050351;28;20445;-64
2023/01/15 01:49:05;;;;;;;6.88;4.90;;;;;;;4.27;87.71;96921.16;5052767;28;20490;-63
2023/01/15 01:51:37;;;;;;;7.32;5.35;;;;;;;4.24;87.80;96918.63;5052577;28;20057;-63
2023/01/15 01:54:06;;;;;;;8.60;5.25;;;;;;;4.25;87.95;96922.94;5052544;28;20068;-62
2023/01/15 01:56:35;;;;;;;6.47;5.45;;;;;;;4.26;88.19;96916.88;5052940;28;20060;-66
2023/01/15 01:59:07;;;;;;;7.63;5.47;;;;;;;4.26;88.60;96922.06;5052421;28;20084;-61
2023/01/15 02:01:35;;;;;;;7.88;5.68;;;;;;;4.27;88.52;96914.28;5052466;27;20048;-66
2023/01/15 02:04:03;;;;;;;6.70;5.70;;;;;;;4.29;88.62;96922.91;5052369;28;20080;-63
2023/01/15 02:06:31;;;;;;;7.22;5.43;;;;;;;4.31;88.44;96920.31;5052375;28;20498;-65
2023/01/15 02:08:58;;;;;;;7.20;5.28;;;;;;;4.31;88.41;96917.72;5052307;28;20045;-65
2023/01/15 02:11:27;;;;;;;49.42;6.72;;;;;;;4.30;88.37;96916.84;5052259;28;20498;-64
2023/01/15 02:14:00;;;;;;;90.70;8.20;;;;;;;4.28;88.63;96917.72;5052137;28;20485;-66
2023/01/15 02:16:37;;;;;;;14.35;7.72;;;;;;;4.27;88.67;96910.81;5052203;28;20128;-67
2023/01/15 02:19:15;;;;;;;20.10;7.47;;;;;;;4.29;88.72;96920.31;5052124;28;20073;-67
2023/01/15 02:21:51;;;;;;;53.45;7.68;;;;;;;4.29;89.00;96914.25;5051900;28;20045;-65
2023/01/15 02:24:29;;;;;;;17.73;7.88;;;;;;;4.27;89.05;96913.41;5052093;28;20091;-67
2023/01/15 02:27:20;;;;;;;74.18;11.00;;;;;;;4.23;89.23;96917.75;5052205;28;20486;-66
2023/01/15 02:29:54;;;;;;;42.30;8.82;;;;;;;4.16;89.45;96910.91;5052930;28;20045;-63
2023/01/15 02:32:32;;;;;;;19.95;10.95;;;;;;;4.09;89.80;96909.22;5051858;28;20440;-64
2023/01/15 02:35:06;;;;;;;18.33;10.80;;;;;;;4.09;90.58;96911.81;5051797;28;20041;-67
2023/01/15 02:37:37;;;;;;;18.33;11.68;;;;;;;4.13;90.50;96905.75;5051777;28;20060;-64
2023/01/15 02:40:07;;;;;;;26.65;10.82;;;;;;;4.16;90.37;96903.13;5051841;28;20049;-63
2023/01/15 02:42:36;;;;;;;88.38;13.52;;;;;;;4.16;90.14;96898.78;5051694;28;20049;-65
2023/01/15 02:45:09;;;;;;;172.68;14.80;;;;;;;4.20;89.82;96906.53;5051482;28;20088;-64
2023/01/15 02:47:40;;;;;;;149.02;12.88;;;;;;;4.10;90.34;96898.84;5051621;28;20045;-65
2023/01/15 02:50:13;;;;;;;21.80;10.25;;;;;;;4.09;90.51;96898.88;5051734;28;20135;-66
2023/01/15 02:52:45;;;;;;;26.73;11.43;;;;;;;4.11;90.63;96897.09;5051745;28;20049;-66
2023/01/15 02:55:17;;;;;;;22.35;10.60;;;;;;;4.12;90.68;96894.50;5051552;28;20045;-64
2023/01/15 02:57:48;;;;;;;17.95;10.88;;;;;;;4.16;90.44;96898.78;5050364;28;20387;-66
2023/01/15 03:00:16;;;;;;;;;;;;;;;4.21;89.79;96895.34;5051913;28;20073;-65
2023/01/15 03:02:51;;;;;;;17.02;10.15;;;;;;;4.15;89.83;96904.84;5051473;28;20384;-64
2023/01/15 03:05:24;;;;;;;15.95;9.25;;;;;;;4.17;90.02;96904.84;5051477;28;20048;-65
2023/01/15 03:07:54;;;;;;;20.05;10.90;;;;;;;4.20;90.19;96904.81;5051377;28;20387;-64
2023/01/15 03:10:30;;;;;;;20.63;11.57;;;;;;;4.21;90.01;96897.94;5051256;28;20052;-63
2023/01/15 03:13:06;;;;;;;22.75;10.90;;;;;;;4.20;90.06;96902.22;5051473;28;20490;-66
2023/01/15 03:18:31;;;;;;;18.60;10.68;;;;;;;4.25;89.59;96904.78;5051263;28;20422;-66
2023/01/15 03:21:04;;;;;;;19.80;11.07;;;;;;;4.24;89.28;96906.50;5051486;28;20056;-64
2023/01/15 03:23:31;;;;;;;41.45;12.13;;;;;;;4.25;89.38;96909.97;5051322;28;20045;-63
2023/01/15 03:25:58;;;;;;;363.02;22.55;;;;;;;4.26;89.25;96909.97;5051056;28;20415;-64
2023/01/15 03:28:31;;;;;;;124.40;16.35;;;;;;;4.26;89.39;96909.97;5051269;28;20053;-66
2023/01/15 03:30:59;;;;;;;146.75;18.25;;;;;;;4.19;89.56;96907.41;5051196;28;20045;-61
2023/01/15 03:33:26;;;;;;;78.93;17.40;;;;;;;4.22;89.86;96910.00;5051184;28;20486;-65
2023/01/15 03:35:57;;;;;;;693.63;31.63;;;;;;;4.20;89.76;96907.41;5050880;28;20140;-65
2023/01/15 03:38:25;;;;;;;;;;;;;;;4.18;90.01;96911.72;5051242;28;20052;-63
2023/01/15 03:41:02;;;;;;;430.70;23.27;;;;;;;4.17;90.16;96916.06;5050796;28;19924;-63
2023/01/15 03:43:42;;;;;;;249.98;19.67;;;;;;;4.13;90.23;96910.91;5050615;28;20097;-65
2023/01/15 03:46:14;;;;;;;;;;;;;;;4.12;90.65;96907.47;5051042;28;20085;-63
2023/01/15 03:48:47;;;;;;;134.50;17.42;;;;;;;4.06;91.03;96901.47;5050698;28;19944;-62
2023/01/15 03:51:20;;;;;;;112.93;17.75;;;;;;;4.01;91.13;96904.94;5051034;28;20447;-67
2023/01/15 03:53:50;;;;;;;40.28;16.40;;;;;;;4.01;91.36;96909.25;5050793;28;20053;-65
2023/01/15 03:56:23;;;;;;;38.20;15.95;;;;;;;4.04;91.38;96911.84;5050734;28;20093;-63
2023/01/15 03:58:56;;;;;;;27.65;14.48;;;;;;;4.07;91.11;96908.38;5050566;28;20437;-63
2023/01/15 04:01:28;;;;;;;45.95;15.85;;;;;;;4.10;91.11;96905.75;5050557;28;20106;-65
2023/01/15 04:03:56;;;;;;;37.10;15.57;;;;;;;4.09;91.08;96910.06;5050572;28;20048;-62
2023/01/15 04:06:25;;;;;;;139.98;18.60;;;;;;;4.09;90.97;96909.22;5050483;28;20132;-65
2023/01/15 04:08:53;;;;;;;40.85;17.25;;;;;;;4.10;90.59;96909.22;5050270;28;20078;-67
2023/01/15 04:11:23;;;;;;;45.28;15.98;;;;;;;4.13;90.66;96909.16;5050429;28;20045;-67
2023/01/15 04:13:51;;;;;;;46.83;15.98;;;;;;;4.16;90.73;96916.09;5050823;28;20124;-67
2023/01/15 04:16:25;;;;;;;65.03;15.30;;;;;;;4.19;90.43;96917.78;5050456;28;20041;-64
2023/01/15 04:18:52;;;;;;;254.32;21.33;;;;;;;4.21;90.39;96914.31;5050676;28;20215;-66
2023/01/15 04:21:21;;;;;;;294.63;22.80;;;;;;;4.15;90.18;96916.94;5050263;28;20045;-65
2023/01/15 04:23:48;;;;;;;341.83;21.02;;;;;;;4.13;90.48;96911.75;5050138;28;20044;-64
2023/01/15 04:26:15;;;;;;;637.42;36.33;;;;;;;4.07;90.67;96919.59;5050258;28;20108;-66
2023/01/15 04:28:43;;;;;;;387.35;21.55;;;;;;;4.06;90.70;96915.25;5050493;28;20176;-67
2023/01/15 04:31:11;;;;;;;249.55;19.15;;;;;;;4.04;90.71;96917.00;5050339;28;20049;-65
2023/01/15 04:33:39;;;;;;;560.80;27.60;;;;;;;4.03;90.89;96921.31;5050054;28;20049;-66
2023/01/15 04:36:08;;;;;;;61.13;14.52;;;;;;;4.02;90.71;96923.91;5050255;28;20045;-66
2023/01/15 04:38:37;;;;;;;60.53;14.57;;;;;;;3.98;90.63;96923.09;5050058;28;20566;-65
2023/01/15 04:44:07;;;;;;;406.23;24.77;;;;;;;3.78;91.03;96931.81;5050044;28;20509;-64
2023/01/15 04:46:38;;;;;;;373.38;19.48;;;;;;;3.76;90.94;96930.94;5049960;28;20053;-66
2023/01/15 04:49:06;;;;;;;241.85;18.17;;;;;;;3.70;90.90;96938.72;5049914;28;20049;-63
2023/01/15 04:51:33;;;;;;;74.93;13.32;;;;;;;3.65;91.03;96932.75;5049968;27;20104;-64
2023/01/15 04:54:02;;;;;;;156.02;16.50;;;;;;;3.60;91.21;96934.47;5049979;28;20057;-67
2023/01/15 04:56:30;;;;;;;77.45;14.45;;;;;;;3.57;91.54;96939.66;5049740;28;20410;-67
2023/01/15 04:59:00;;;;;;;170.20;18.05;;;;;;;3.49;91.92;96943.13;5049758;28;20070;-64
2023/01/15 05:01:27;;;;;;;271.73;21.00;;;;;;;3.45;91.85;96941.44;5049693;28;20448;-66
2023/01/15 05:03:57;;;;;;;283.40;22.08;;;;;;;3.40;92.31;96951.78;5049856;28;20532;-64
2023/01/15 05:06:24;;;;;;;146.93;16.77;;;;;;;3.38;92.54;96950.94;5049769;28;20045;-66
2023/01/15 05:08:51;;;;;;;53.42;15.68;;;;;;;3.42;92.83;96951.78;5049772;28;20069;-66
2023/01/15 05:11:18;;;;;;;29.05;14.55;;;;;;;3.49;92.63;96950.88;5049581;28;20084;-66
2023/01/15 05:13:45;;;;;;;33.15;15.13;;;;;;;3.56;92.83;96943.13;5049604;28;20117;-66
2023/01/15 05:16:15;;;;;;;96.60;18.35;;;;;;;3.65;92.68;96945.69;5049641;28;20473;-61
2023/01/15 05:18:42;;;;;;;154.98;18.27;;;;;;;3.66;92.61;96947.38;5049528;28;20049;-64
2023/01/15 05:21:17;;;;;;;661.55;32.63;;;;;;;3.72;92.45;96954.25;5050405;28;20130;-62
2023/01/15 05:23:45;;;;;;;255.85;21.55;;;;;;;3.73;92.34;96962.03;5052835;28;20128;-67
2023/01/15 05:26:12;;;;;;;538.42;31.35;;;;;;;3.76;92.16;96958.53;5052887;28;20055;-65
2023/01/15 05:28:39;;;;;;;141.50;17.05;;;;;;;3.76;92.27;96950.78;5052823;28;20051;-65
2023/01/15 05:31:08;;;;;;;276.95;21.60;;;;;;;3.81;91.86;96959.41;5052874;28;20445;-66
2023/01/15 05:33:37;;;;;;;617.40;31.40;;;;;;;3.76;91.97;96963.72;5052918;28;20082;-64
2023/01/15 05:36:05;;;;;;;333.02;21.98;;;;;;;3.77;92.05;96963.72;5052696;28;20052;-65
2023/01/15 05:38:34;;;;;;;490.45;27.33;;;;;;;3.79;92.03;96961.13;5052876;28;20056;-63
2023/01/15 05:41:47;;;;;;;649.45;29.05;;;;;;;3.80;91.85;96957.69;5052824;28;20106;-67
2023/01/15 05:43:52;;;;;;;715.00;30.23;;;;;;;3.78;91.82;96954.25;5052650;28;20057;-66
2023/01/15 05:46:19;;;;;;;555.15;28.20;;;;;;;3.80;91.70;96960.28;5052627;28;20127;-62
2023/01/15 05:48:46;;;;;;;527.00;25.10;;;;;;;3.83;91.75;96960.28;5052672;28;20109;-62
2023/01/15 05:51:15;;;;;;;528.47;30.05;;;;;;;3.85;91.70;96961.09;5052698;28;20041;-63
2023/01/15 05:53:44;;;;;;;438.17;22.10;;;;;;;3.86;91.60;96967.16;5052625;28;20087;-64
2023/01/15 05:56:11;;;;;;;747.60;31.63;;;;;;;3.85;91.75;96965.44;5052429;28;20056;-66
2023/01/15 05:58:39;;;;;;;583.35;27.65;;;;;;;3.81;91.46;96961.13;5052461;28;20045;-64
2023/01/15 06:01:08;;;;;;;561.30;25.90;;;;;;;3.72;91.95;96965.47;5052508;28;20045;-67
2023/01/15 06:03:35;;;;;;;898.25;39.15;;;;;;;3.74;92.16;96962.88;5052277;28;20498;-64
2023/01/15 06:06:04;;;;;;;762.35;31.98;;;;;;;3.67;92.48;96955.16;5052324;28;20049;-65
2023/01/15 06:08:31;;;;;;;584.45;26.92;;;;;;;3.62;92.65;96961.22;5052637;28;20105;-66
2023/01/15 06:11:00;;;;;;;386.17;23.25;;;;;;;3.62;93.01;96962.06;5052211;28;20049;-62
2023/01/15 06:13:27;;;;;;;873.47;34.97;;;;;;;3.64;93.13;96964.63;5052041;28;20049;-67
2023/01/15 06:15:58;;;;;;;719.92;34.38;;;;;;;3.67;92.97;96959.44;5052057;28;20053;-65
2023/01/15 06:18:26;;;;;;;661.05;30.33;;;;;;;3.69;92.72;96962.03;5052042;28;20056;-65
2023/01/15 06:20:54;;;;;;;444.50;23.58;;;;;;;3.67;93.09;96959.44;5052047;28;20049;-65
2023/01/15 06:23:21;;;;;;;525.63;27.83;;;;;;;3.70;92.89;96961.19;5051994;28;20551;-64
2023/01/15 06:25:49;;;;;;;687.25;30.98;;;;;;;3.69;92.89;96969.78;5051904;28;20498;-67
2023/01/15 06:28:21;;;;;;;764.20;32.40;;;;;;;3.66;92.86;96957.75;5051968;28;20140;-64
2023/01/15 06:30:49;;;;;;;361.35;22.55;;;;;;;3.65;93.02;96959.44;5051963;28;20160;-63
2023/01/15 06:33:18;;;;;;;499.08;21.52;;;;;;;3.65;93.26;96968.97;5051697;28;20084;-66
2023/01/15 06:35:45;;;;;;;632.55;26.80;;;;;;;3.67;93.01;96964.63;5051841;28;20049;-65
2023/01/15 06:38:12;;;;;;;906.00;36.72;;;;;;;3.65;92.85;96966.38;5051803;28;20056;-64
2023/01/15 06:40:40;;;;;;;670.78;30.92;;;;;;;3.62;93.02;96961.22;5051875;28;20049;-66
2023/01/15 06:48:48;;;;;;;419.88;24.05;;;;;;;3.78;93.30;96973.22;5004699;28;20096;-65
2023/01/15 06:51:19;;;;;;;719.70;33.30;;;;;;;3.77;93.19;96974.06;5051717;28;20451;-66
2023/01/15 06:53:46;;;;;;;;;;;;;;;3.74;92.95;96968.06;5051966;28;20131;-65
2023/01/15 06:56:14;;;;;;;542.67;24.98;;;;;;;3.69;93.67;96972.38;5051833;28;19920;-65
2023/01/15 06:58:41;;;;;;;497.80;24.38;;;;;;;3.74;93.39;96975.81;5051580;27;20048;-63
2023/01/15 07:01:14;;;;;;;458.75;22.65;;;;;;;3.79;93.20;96974.06;5051655;28;20071;-66
2023/01/15 07:03:41;;;;;;;843.25;34.63;;;;;;;3.83;93.17;96980.09;5051352;28;20053;-63
2023/01/15 07:06:11;;;;;;;622.40;27.52;;;;;;;3.76;93.21;96974.06;5051345;28;20076;-65
2023/01/15 07:08:39;;;;;;;406.17;21.25;;;;;;;3.85;93.17;96970.63;5051409;28;20041;-64
2023/01/15 07:11:09;;;;;;;539.45;26.23;;;;;;;3.88;92.79;96968.00;5051396;28;20045;-63
2023/01/15 07:13:37;;;;;;;750.20;32.30;;;;;;;3.72;93.21;96967.19;5051389;28;20132;-65
2023/01/15 07:16:25;;;;;;;653.58;28.67;;;;;;;3.82;93.53;96970.63;5051143;28;20048;-65
2023/01/15 07:18:55;;;;;;;762.97;47.03;;;;;;;3.85;93.46;96971.47;5051200;28;20072;-64
2023/01/15 07:21:23;;;;;;;215.30;29.67;;;;;;;3.88;92.99;96973.16;5051485;28;20555;-66
2023/01/15 07:23:53;;;;;;;272.48;48.58;;;;;;;3.92;93.44;96969.72;5051049;28;20045;-64
2023/01/15 07:26:29;;;;;;;403.45;44.72;;;;;;;3.91;93.27;96965.38;5050993;28;20049;-66
2023/01/15 07:28:57;;;;;;;298.70;26.95;;;;;;;3.93;93.38;96968.84;5050952;28;20049;-63
2023/01/15 07:31:25;;;;;;;610.65;34.22;;;;;;;3.96;93.37;96973.13;5050894;28;20052;-65
2023/01/15 07:33:55;;;;;;;514.08;26.80;;;;;;;3.98;93.15;96974.00;5050957;28;20132;-65
2023/01/15 07:36:23;;;;;;;426.80;24.23;;;;;;;3.99;93.45;96981.75;5050924;28;20080;-64
2023/01/15 07:38:51;;;;;;;674.33;35.15;;;;;;;3.98;93.52;96976.59;5050724;28;20191;-64
2023/01/15 07:49:47;;;;;;;472.90;22.33;;;;;;;3.93;94.17;96979.19;5050735;28;20493;-66
2023/01/15 07:52:16;;;;;;;596.92;25.73;;;;;;;3.89;94.20;96977.50;5050685;28;20049;-67
2023/01/15 07:54:44;;;;;;;699.92;32.08;;;;;;;3.95;93.91;96986.97;5050724;28;20045;-67
2023/01/15 07:57:13;;;;;;;311.58;20.05;;;;;;;3.95;93.93;96989.53;5050608;28;20049;-64
2023/01/15 07:59:41;;;;;;;646.33;31.70;;;;;;;3.89;94.08;96987.84;5050427;28;20049;-62
2023/01/15 08:02:08;;;;;;;758.85;57.40;;;;;;;3.86;94.24;96980.97;5050507;28;20097;-64
2023/01/15 08:04:41;;;;;;;684.63;35.42;;;;;;;3.94;94.37;96982.66;5050363;28;20052;-65
2023/01/15 08:07:09;;;;;;;766.85;34.55;;;;;;;3.97;94.60;96983.47;5050460;28;20113;-65
2023/01/15 08:09:36;;;;;;;373.70;26.08;;;;;;;3.97;94.30;96983.47;5050606;28;20052;-63
2023/01/15 08:17:35;;;;;;;675.10;30.45;;;;;;;3.89;94.15;96982.69;5050664;28;20420;-64
2023/01/15 08:20:08;;;;;;;710.42;30.48;;;;;;;3.87;94.50;96989.56;5050206;28;20097;-65
2023/01/15 08:22:37;;;;;;;1021.25;39.53;;;;;;;3.78;95.53;96991.34;5050201;28;20073;-64
2023/01/15 08:25:05;;;;;;;688.42;31.85;;;;;;;3.79;95.62;96990.47;5050339;28;20135;-63
2023/01/15 08:27:33;;;;;;;371.67;25.83;;;;;;;3.81;95.50;96993.06;5050100;28;20053;-62
2023/01/15 08:30:03;;;;;;;379.95;21.40;;;;;;;3.81;95.69;96990.47;5050220;28;20056;-66
2023/01/15 08:32:30;;;;;;;967.80;36.87;;;;;;;3.89;95.65;96998.22;5050114;28;20501;-62
2023/01/15 08:34:59;;;;;;;617.50;28.80;;;;;;;3.82;95.59;96996.50;5050147;28;20144;-64
2023/01/15 08:37:30;;;;;;;688.97;35.05;;;;;;;3.85;95.30;97001.69;5050096;28;20045;-63
2023/01/15 08:39:59;;;;;;;490.58;30.13;;;;;;;3.74;94.95;97009.47;5049995;28;20052;-62
2023/01/15 08:42:27;;;;;;;584.20;31.27;;;;;;;3.75;94.72;97004.28;5049920;28;20045;-65
2023/01/15 08:44:57;;;;;;;817.10;32.33;;;;;;;3.82;95.24;97004.28;5049530;28;20053;-64
2023/01/15 08:47:24;;;;;;;544.03;28.40;;;;;;;3.85;94.80;96999.09;5049811;28;20041;-65
2023/01/15 08:50:00;;;;;;;828.95;35.88;;;;;;;3.86;95.16;97004.25;5049897;28;20379;-62
2023/01/15 08:52:32;;;;;;;399.48;21.77;;;;;;;3.88;95.22;97009.41;5050165;28;20131;-65
2023/01/15 08:55:05;;;;;;;298.05;20.00;;;;;;;3.85;94.54;97002.53;5050513;28;20494;-63
2023/01/15 08:57:33;;;;;;;743.33;32.50;;;;;;;3.83;94.41;97004.28;5053357;28;20041;-62
2023/01/15 09:00:00;;;;;;;689.50;32.70;;;;;;;3.85;94.89;96999.09;5053285;28;20049;-63
2023/01/15 09:02:28;;;;;;;719.80;32.03;;;;;;;3.80;95.41;96999.09;5053272;28;20150;-67
2023/01/15 09:04:56;;;;;;;748.92;31.52;;;;;;;3.77;95.34;96993.94;5053580;28;20053;-65
2023/01/15 09:07:24;;;;;;;1269.80;43.45;;;;;;;3.62;96.08;96994.84;5053227;28;20070;-66
2023/01/15 09:09:54;;;;;;;1024.47;38.97;;;;;;;3.67;96.69;96990.50;5053118;28;20052;-62
2023/01/15 09:12:26;;;;;;;720.80;25.37;;;;;;;3.66;96.51;96991.38;5053216;28;20591;-64
2023/01/15 09:14:57;;;;;;;558.70;22.95;;;;;;;3.61;96.89;96988.78;5052962;28;20057;-63
2023/01/15 09:17:24;;;;;;;310.80;19.33;;;;;;;3.58;96.97;96985.38;5053081;28;20084;-65
2023/01/15 09:19:51;;;;;;;655.20;25.98;;;;;;;3.63;97.30;96988.78;5053050;28;20441;-64
2023/01/15 09:22:19;;;;;;;425.80;22.42;;;;;;;3.58;97.21;96983.63;5053096;28;20459;-63
2023/01/15 09:24:49;;;;;;;398.70;21.23;;;;;;;3.65;97.03;96974.97;5052805;28;20496;-65
2023/01/15 09:27:27;;;;;;;247.05;18.23;;;;;;;3.67;96.86;96978.44;5052927;28;20045;-64
2023/01/15 09:30:05;;;;;;;337.23;18.42;;;;;;;3.77;96.50;96970.63;5052939;28;20505;-62
2023/01/15 09:32:33;;;;;;;404.45;25.95;;;;;;;3.71;96.65;96974.13;5053004;28;20482;-62
2023/01/15 09:35:02;;;;;;;260.80;22.60;;;;;;;3.75;96.79;96972.38;5052797;28;20421;-65
2023/01/15 09:37:30;;;;;;;290.38;19.10;;;;;;;3.78;96.61;96965.47;5052626;28;20455;-63
2023/01/15 09:39:58;;;;;;;645.55;26.23;;;;;;;3.76;95.97;96956.81;5052691;28;20045;-67
2023/01/15 09:42:42;;;;;;;258.38;17.42;;;;;;;3.76;95.84;96962.00;5052754;28;20045;-67
2023/01/15 09:45:22;;;;;;;621.65;25.13;;;;;;;3.73;96.17;96959.44;5052335;28;20266;-65
2023/01/15 09:48:16;;;;;;;318.13;17.63;;;;;;;3.76;96.00;96964.59;5052752;28;20053;-64
2023/01/15 09:51:01;;;;;;;298.40;16.98;;;;;;;3.80;96.06;96949.94;5052674;28;20117;-63
2023/01/15 09:53:45;;;;;;;261.80;17.05;;;;;;;3.83;95.75;96949.91;5052665;28;20048;-65
2023/01/15 09:56:21;;;;;;;634.42;22.38;;;;;;;3.77;95.74;96948.19;5052373;28;20478;-63
2023/01/15 09:58:52;;;;;;;433.80;19.05;;;;;;;3.74;96.12;96944.78;5052447;28;20113;-66
2023/01/15 10:01:26;;;;;;;280.15;17.63;;;;;;;3.76;96.26;96943.88;5052392;28;20452;-63
2023/01/15 10:04:01;;;;;;;341.58;18.00;;;;;;;3.73;96.20;96943.91;5052362;28;20077;-66
2023/01/15 10:06:34;;;;;;;65.53;13.48;;;;;;;3.75;95.88;96941.31;5051846;28;20132;-64
2023/01/15 10:09:10;;;;;;;33.42;14.13;;;;;;;3.82;95.39;96939.56;5052470;28;20049;-66
2023/01/15 10:14:40;;;;;;;36.60;12.45;;;;;;;3.84;94.87;96936.09;5052305;28;20056;-65
2023/01/15 10:17:25;;;;;;;25.83;10.77;;;;;;;3.91;94.96;96929.16;5052169;28;20084;-66
2023/01/15 10:19:52;;;;;;;33.72;14.82;;;;;;;3.93;94.54;96919.66;5052249;28;20049;-64
2023/01/15 10:22:39;;;;;;;45.88;15.95;;;;;;;3.87;94.83;96915.38;5052126;28;20045;-64
2023/01/15 10:25:17;;;;;;;20.02;9.27;;;;;;;3.91;95.42;96914.47;5051938;28;20134;-66
2023/01/15 10:27:50;;;;;;;17.45;8.80;;;;;;;3.98;95.20;96904.97;5051987;28;20433;-66
2023/01/15 10:30:29;;;;;;;18.67;8.60;;;;;;;4.08;95.10;96910.06;5052178;28;20122;-63
2023/01/15 10:33:03;;;;;;;18.58;8.77;;;;;;;4.11;94.64;96907.47;5052311;28;20057;-65
2023/01/15 10:35:42;;;;;;;16.38;7.95;;;;;;;4.11;94.40;96904.88;5052045;28;20059;-63
2023/01/15 10:38:19;;;;;;;12.88;7.30;;;;;;;4.28;94.09;96900.44;5051796;28;20045;-66
2023/01/15 10:41:18;;;;;;;12.60;7.07;;;;;;;4.35;93.84;96898.69;5051800;28;20052;-64
2023/01/15 10:43:54;;;;;;;14.45;7.15;;;;;;;4.31;93.97;96891.81;5051882;28;20045;-67
2023/01/15 10:46:39;;;;;;;14.98;7.30;;;;;;;4.41;93.69;96882.22;5051787;28;20057;-66
2023/01/15 10:49:16;;;;;;;13.55;7.22;;;;;;;4.41;91.65;96885.69;5051685;28;20555;-65
2023/01/15 10:51:46;;;;;;;14.20;6.60;;;;;;;4.50;91.35;96879.56;5051554;28;20041;-66
2023/01/15 10:54:23;;;;;;;15.07;9.85;;;;;;;4.59;92.04;96877.75;5051715;28;20041;-66
2023/01/15 10:57:00;;;;;;;13.82;7.70;;;;;;;4.64;92.18;96878.59;5051551;28;20049;-63
2023/01/15 10:59:38;;;;;;;15.23;7.45;;;;;;;4.74;92.14;96867.25;5052008;28;20173;-64
2023/01/15 11:02:22;;;;;;;12.18;6.95;;;;;;;4.83;91.99;96868.91;5051652;28;20044;-64
2023/01/15 11:04:49;;;;;;;11.88;6.97;;;;;;;4.84;91.68;96855.06;5051391;28;20094;-63
2023/01/15 11:07:18;;;;;;;13.90;7.43;;;;;;;4.96;91.32;96851.47;5051381;28;20045;-63
2023/01/15 11:09:48;;;;;;;14.23;7.82;;;;;;;5.07;91.14;96853.97;5051507;28;20052;-62
2023/01/15 11:21:06;;;;;;;12.15;7.68;;;;;;;5.20;90.19;96838.28;5051506;28;20059;-62
2023/01/15 11:23:42;;;;;;;15.25;7.47;;;;;;;5.21;90.24;96832.19;5051363;28;20101;-63
2023/01/15 11:26:18;;;;;;;15.55;8.38;;;;;;;5.21;89.94;96834.78;5050962;28;20045;-61
2023/01/15 11:28:48;;;;;;;13.90;8.77;;;;;;;5.27;89.63;96822.59;5051135;28;20132;-63
2023/01/15 11:31:22;;;;;;;12.40;8.35;;;;;;;5.34;89.79;96818.19;5051472;28;20093;-62
2023/01/15 11:34:06;;;;;;;15.30;7.97;;;;;;;5.39;89.99;96818.16;5050977;28;20045;-66
2023/01/15 11:36:35;;;;;;;10.77;6.43;;;;;;;5.36;90.12;96819.03;5050902;28;20049;-65
2023/01/15 11:39:20;;;;;;;12.23;7.22;;;;;;;5.37;90.65;96812.97;5050943;28;20041;-66
2023/01/15 11:53:03;;;;;;;11.27;7.25;;;;;;;5.47;89.64;96800.72;5051062;28;20056;-65
2023/01/15 11:55:32;;;;;;;13.38;7.38;;;;;;;5.27;88.37;96803.59;5050620;28;20052;-63
2023/01/15 11:57:59;;;;;;;12.75;8.00;;;;;;;5.24;88.39;96804.47;5050657;28;20049;-64
2023/01/15 12:00:29;;;;;;;12.25;7.75;;;;;;;5.09;89.42;96799.50;5050643;28;20048;-65
2023/01/15 12:03:01;;;;;;;17.15;9.40;;;;;;;5.03;90.16;96806.44;5050626;28;20097;-63
2023/01/15 12:05:34;;;;;;;16.20;9.45;;;;;;;5.08;90.97;96803.81;5050488;28;20452;-64
2023/01/15 12:08:13;;;;;;;14.55;9.02;;;;;;;5.17;90.43;96793.31;5050591;28;20049;-60
2023/01/15 12:11:06;;;;;;;14.73;8.60;;;;;;;5.13;90.26;96786.47;5050644;28;20049;-62
2023/01/15 12:13:44;;;;;;;14.82;8.00;;;;;;;5.12;90.35;96787.31;5050518;28;20049;-64
2023/01/15 12:16:21;;;;;;;12.52;7.95;;;;;;;5.19;90.18;96782.94;5050313;28;20164;-62
2023/01/15 12:18:58;;;;;;;14.18;8.77;;;;;;;5.26;89.95;96781.97;5050377;28;20045;-62
2023/01/15 12:21:48;;;;;;;16.27;8.65;;;;;;;5.30;89.55;96777.63;5050208;28;20113;-65
2023/01/15 12:24:56;;;;;;;12.75;7.50;;;;;;;5.33;89.29;96774.13;5050381;28;20041;-62
2023/01/15 12:27:41;;;;;;;14.32;7.50;;;;;;;5.38;88.89;96761.94;5052660;28;20049;-63
2023/01/15 12:30:21;;;;;;;11.75;7.28;;;;;;;5.41;89.04;96761.88;5049838;28;20069;-65
2023/01/15 12:32:56;;;;;;;11.73;6.45;;;;;;;5.51;88.68;96762.63;5050182;28;20132;-65
2023/01/15 12:35:29;;;;;;;11.68;7.35;;;;;;;5.53;87.68;96766.91;5050214;28;20072;-66
2023/01/15 12:38:03;;;;;;;14.48;7.30;;;;;;;5.54;87.62;96758.25;5050124;28;20132;-66
2023/01/15 12:40:42;;;;;;;12.75;7.25;;;;;;;5.60;87.82;96764.25;5050094;28;20052;-65